sensor_id;sensor_type;location;lat;lon;timestamp;pressure;altitude;pressure_sealevel;temperature;humidity
46722;BME280;32455;43.430;23.136;2022-08-21T00:00:37;97506.31;;;20.86;99.27
46722;BME280;32455;43.430;23.136;2022-08-21T00:03:22;97494.97;;;20.93;100.00
46722;BME280;32455;43.430;23.136;2022-08-21T00:06:08;97483.34;;;20.87;100.00
46722;BME280;32455;43.430;23.136;2022-08-21T00:08:52;97481.47;;;20.74;100.00
46722;BME280;32455;43.430;23.136;2022-08-21T00:11:38;97470.34;;;20.70;100.00
46722;BME280;32455;43.430;23.136;2022-08-21T00:14:23;97489.31;;;20.75;100.00
46722;BME280;32455;43.430;23.136;2022-08-21T00:17:08;97480.72;;;20.68;100.00
46722;BME280;32455;43.430;23.136;2022-08-21T00:19:53;97487.41;;;20.76;100.00
46722;BME280;32455;43.430;23.136;2022-08-21T00:22:37;97494.59;;;20.58;100.00
46722;BME280;32455;43.430;23.136;2022-08-21T00:25:22;97494.28;;;20.32;100.00
46722;BME280;32455;43.430;23.136;2022-08-21T00:28:06;97494.97;;;20.24;100.00
46722;BME280;32455;43.430;23.136;2022-08-21T00:30:51;97498.50;;;20.38;100.00
46722;BME280;32455;43.430;23.136;2022-08-21T00:33:36;97496.63;;;20.39;100.00
46722;BME280;32455;43.430;23.136;2022-08-21T00:36:21;97521.00;;;20.49;100.00
46722;BME280;32455;43.430;23.136;2022-08-21T00:39:06;97513.41;;;20.60;100.00
46722;BME280;32455;43.430;23.136;2022-08-21T00:41:51;97524.94;;;20.70;100.00
46722;BME280;32455;43.430;23.136;2022-08-21T00:44:36;97518.25;;;20.76;100.00
46722;BME280;32455;43.430;23.136;2022-08-21T00:47:20;97513.31;;;20.65;100.00
46722;BME280;32455;43.430;23.136;2022-08-21T00:50:07;97516.09;;;20.46;100.00
46722;BME280;32455;43.430;23.136;2022-08-21T00:52:53;97512.78;;;20.35;100.00
46722;BME280;32455;43.430;23.136;2022-08-21T00:55:38;97511.75;;;20.31;100.00
46722;BME280;32455;43.430;23.136;2022-08-21T00:58:26;97509.50;;;20.19;100.00
46722;BME280;32455;43.430;23.136;2022-08-21T01:01:12;97514.47;;;20.17;100.00
46722;BME280;32455;43.430;23.136;2022-08-21T01:03:57;97518.63;;;20.29;100.00
46722;BME280;32455;43.430;23.136;2022-08-21T01:06:43;97517.44;;;20.35;100.00
46722;BME280;32455;43.430;23.136;2022-08-21T01:09:27;97510.63;;;20.32;100.00
46722;BME280;32455;43.430;23.136;2022-08-21T01:12:12;97512.81;;;20.49;100.00
46722;BME280;32455;43.430;23.136;2022-08-21T01:14:57;97509.13;;;20.40;100.00
46722;BME280;32455;43.430;23.136;2022-08-21T01:17:43;97520.84;;;20.26;100.00
46722;BME280;32455;43.430;23.136;2022-08-21T01:20:27;97524.28;;;20.18;100.00
46722;BME280;32455;43.430;23.136;2022-08-21T01:23:12;97531.75;;;20.13;100.00
46722;BME280;32455;43.430;23.136;2022-08-21T01:25:56;97511.22;;;20.15;100.00
46722;BME280;32455;43.430;23.136;2022-08-21T01:28:46;97507.91;;;20.18;100.00
46722;BME280;32455;43.430;23.136;2022-08-21T01:31:34;97511.13;;;20.07;100.00
46722;BME280;32455;43.430;23.136;2022-08-21T01:34:19;97496.03;;;19.95;100.00
46722;BME280;32455;43.430;23.136;2022-08-21T01:37:05;97497.88;;;20.00;100.00
46722;BME280;32455;43.430;23.136;2022-08-21T01:39:49;97488.47;;;19.92;100.00
46722;BME280;32455;43.430;23.136;2022-08-21T01:42:35;97499.88;;;19.94;100.00
46722;BME280;32455;43.430;23.136;2022-08-21T01:45:20;97504.53;;;19.94;100.00
46722;BME280;32455;43.430;23.136;2022-08-21T01:48:05;97513.22;;;19.96;100.00
46722;BME280;32455;43.430;23.136;2022-08-21T01:50:50;97507.56;;;19.92;100.00
46722;BME280;32455;43.430;23.136;2022-08-21T01:53:35;97496.22;;;19.85;100.00
46722;BME280;32455;43.430;23.136;2022-08-21T01:56:21;97495.28;;;19.76;100.00
46722;BME280;32455;43.430;23.136;2022-08-21T01:59:07;97496.50;;;19.70;100.00
46722;BME280;32455;43.430;23.136;2022-08-21T02:01:52;97492.59;;;19.57;100.00
46722;BME280;32455;43.430;23.136;2022-08-21T02:04:41;97500.75;;;19.57;100.00
46722;BME280;32455;43.430;23.136;2022-08-21T02:07:26;97508.88;;;19.62;100.00
46722;BME280;32455;43.430;23.136;2022-08-21T02:10:13;97509.09;;;19.66;100.00
46722;BME280;32455;43.430;23.136;2022-08-21T02:12:59;97505.84;;;19.64;100.00
46722;BME280;32455;43.430;23.136;2022-08-21T02:15:45;97508.91;;;19.76;100.00
46722;BME280;32455;43.430;23.136;2022-08-21T02:18:31;97509.59;;;19.68;100.00
46722;BME280;32455;43.430;23.136;2022-08-21T02:21:16;97517.19;;;19.71;100.00
46722;BME280;32455;43.430;23.136;2022-08-21T02:24:00;97499.59;;;19.63;100.00
46722;BME280;32455;43.430;23.136;2022-08-21T02:26:45;97505.91;;;19.59;100.00
46722;BME280;32455;43.430;23.136;2022-08-21T02:29:30;97490.31;;;19.45;100.00
46722;BME280;32455;43.430;23.136;2022-08-21T02:32:16;97506.94;;;19.44;100.00
46722;BME280;32455;43.430;23.136;2022-08-21T02:35:01;97504.28;;;19.39;100.00
46722;BME280;32455;43.430;23.136;2022-08-21T02:37:49;97500.19;;;19.41;100.00
46722;BME280;32455;43.430;23.136;2022-08-21T02:40:38;97505.72;;;19.36;100.00
46722;BME280;32455;43.430;23.136;2022-08-21T02:43:25;97494.16;;;19.25;100.00
46722;BME280;32455;43.430;23.136;2022-08-21T02:46:12;97500.94;;;19.28;100.00
46722;BME280;32455;43.430;23.136;2022-08-21T02:48:57;97495.50;;;19.28;100.00
46722;BME280;32455;43.430;23.136;2022-08-21T02:51:42;97488.63;;;19.31;100.00
46722;BME280;32455;43.430;23.136;2022-08-21T02:54:27;97498.50;;;19.26;100.00
46722;BME280;32455;43.430;23.136;2022-08-21T02:57:13;97469.75;;;19.01;100.00
46722;BME280;32455;43.430;23.136;2022-08-21T02:59:59;97482.97;;;18.89;100.00
46722;BME280;32455;43.430;23.136;2022-08-21T03:02:44;97481.47;;;18.78;100.00
46722;BME280;32455;43.430;23.136;2022-08-21T03:05:32;97481.03;;;18.71;100.00
46722;BME280;32455;43.430;23.136;2022-08-21T03:08:18;97474.69;;;18.75;100.00
46722;BME280;32455;43.430;23.136;2022-08-21T03:11:03;97472.59;;;18.91;100.00
46722;BME280;32455;43.430;23.136;2022-08-21T03:13:49;97476.88;;;18.97;100.00
46722;BME280;32455;43.430;23.136;2022-08-21T03:16:33;97474.16;;;18.97;100.00
46722;BME280;32455;43.430;23.136;2022-08-21T03:19:19;97482.00;;;18.99;100.00
46722;BME280;32455;43.430;23.136;2022-08-21T03:22:06;97472.16;;;19.03;100.00
46722;BME280;32455;43.430;23.136;2022-08-21T03:24:52;97471.34;;;19.21;100.00
46722;BME280;32455;43.430;23.136;2022-08-21T03:27:37;97474.19;;;19.30;100.00
46722;BME280;32455;43.430;23.136;2022-08-21T03:30:23;97488.03;;;19.34;100.00
46722;BME280;32455;43.430;23.136;2022-08-21T03:33:08;97492.09;;;19.36;100.00
46722;BME280;32455;43.430;23.136;2022-08-21T03:36:02;97479.38;;;19.32;100.00
46722;BME280;32455;43.430;23.136;2022-08-21T03:38:49;97483.91;;;19.36;100.00
46722;BME280;32455;43.430;23.136;2022-08-21T03:41:34;97503.19;;;19.40;100.00
46722;BME280;32455;43.430;23.136;2022-08-21T03:44:19;97509.47;;;19.40;100.00
46722;BME280;32455;43.430;23.136;2022-08-21T03:47:05;97503.88;;;19.32;100.00
46722;BME280;32455;43.430;23.136;2022-08-21T03:49:50;97519.91;;;19.33;100.00
46722;BME280;32455;43.430;23.136;2022-08-21T03:52:35;97507.63;;;19.17;100.00
46722;BME280;32455;43.430;23.136;2022-08-21T03:55:21;97512.72;;;19.23;100.00
46722;BME280;32455;43.430;23.136;2022-08-21T03:58:07;97506.88;;;19.30;100.00
46722;BME280;32455;43.430;23.136;2022-08-21T04:01:00;97525.59;;;19.37;100.00
46722;BME280;32455;43.430;23.136;2022-08-21T04:03:45;97506.38;;;19.28;100.00
46722;BME280;32455;43.430;23.136;2022-08-21T04:06:31;97523.00;;;19.26;100.00
46722;BME280;32455;43.430;23.136;2022-08-21T04:09:18;97517.13;;;19.19;100.00
46722;BME280;32455;43.430;23.136;2022-08-21T04:12:02;97516.53;;;19.04;100.00
46722;BME280;32455;43.430;23.136;2022-08-21T04:14:48;97495.81;;;18.84;100.00
46722;BME280;32455;43.430;23.136;2022-08-21T04:17:34;97496.59;;;18.89;100.00
46722;BME280;32455;43.430;23.136;2022-08-21T04:20:22;97499.66;;;18.83;100.00
46722;BME280;32455;43.430;23.136;2022-08-21T04:23:08;97493.56;;;18.91;100.00
46722;BME280;32455;43.430;23.136;2022-08-21T04:25:55;97511.22;;;19.12;100.00
46722;BME280;32455;43.430;23.136;2022-08-21T04:28:41;97506.50;;;19.18;100.00
46722;BME280;32455;43.430;23.136;2022-08-21T04:31:26;97509.31;;;19.13;100.00
46722;BME280;32455;43.430;23.136;2022-08-21T04:34:17;97503.94;;;19.26;100.00
46722;BME280;32455;43.430;23.136;2022-08-21T04:37:03;97485.97;;;19.25;100.00
46722;BME280;32455;43.430;23.136;2022-08-21T04:39:49;97497.91;;;19.30;100.00
46722;BME280;32455;43.430;23.136;2022-08-21T04:42:42;97485.75;;;19.41;100.00
46722;BME280;32455;43.430;23.136;2022-08-21T04:45:36;97498.09;;;19.52;100.00
46722;BME280;32455;43.430;23.136;2022-08-21T04:48:22;97493.97;;;19.55;100.00
46722;BME280;32455;43.430;23.136;2022-08-21T04:51:22;97482.72;;;19.61;100.00
46722;BME280;32455;43.430;23.136;2022-08-21T04:54:17;97497.50;;;19.74;100.00
46722;BME280;32455;43.430;23.136;2022-08-21T04:57:08;97491.53;;;19.72;100.00
46722;BME280;32455;43.430;23.136;2022-08-21T04:59:55;97486.00;;;19.77;100.00
46722;BME280;32455;43.430;23.136;2022-08-21T05:02:40;97478.25;;;19.84;100.00
46722;BME280;32455;43.430;23.136;2022-08-21T05:05:28;97480.28;;;19.92;100.00
46722;BME280;32455;43.430;23.136;2022-08-21T05:08:18;97484.75;;;20.02;100.00
46722;BME280;32455;43.430;23.136;2022-08-21T05:11:04;97478.16;;;20.03;100.00
46722;BME280;32455;43.430;23.136;2022-08-21T05:13:50;97502.84;;;20.12;100.00
46722;BME280;32455;43.430;23.136;2022-08-21T05:16:35;97494.16;;;20.10;100.00
46722;BME280;32455;43.430;23.136;2022-08-21T05:19:22;97495.75;;;20.11;100.00
46722;BME280;32455;43.430;23.136;2022-08-21T05:22:09;97493.34;;;20.09;100.00
46722;BME280;32455;43.430;23.136;2022-08-21T05:24:56;97483.75;;;20.12;100.00
46722;BME280;32455;43.430;23.136;2022-08-21T05:27:42;97491.44;;;20.23;100.00
46722;BME280;32455;43.430;23.136;2022-08-21T05:30:28;97474.16;;;20.28;100.00
46722;BME280;32455;43.430;23.136;2022-08-21T05:33:13;97477.50;;;20.39;100.00
46722;BME280;32455;43.430;23.136;2022-08-21T05:35:58;97468.69;;;20.42;100.00
46722;BME280;32455;43.430;23.136;2022-08-21T05:38:44;97473.38;;;20.55;100.00
46722;BME280;32455;43.430;23.136;2022-08-21T05:41:29;97470.72;;;20.64;98.58
46722;BME280;32455;43.430;23.136;2022-08-21T05:44:14;97463.56;;;20.68;99.39
46722;BME280;32455;43.430;23.136;2022-08-21T05:47:04;97477.69;;;20.84;98.19
46722;BME280;32455;43.430;23.136;2022-08-21T05:49:49;97478.50;;;20.84;98.46
46722;BME280;32455;43.430;23.136;2022-08-21T05:52:34;97475.38;;;20.91;97.86
46722;BME280;32455;43.430;23.136;2022-08-21T05:55:20;97482.31;;;20.97;97.98
46722;BME280;32455;43.430;23.136;2022-08-21T05:58:07;97474.50;;;21.04;97.38
46722;BME280;32455;43.430;23.136;2022-08-21T06:03:39;97474.00;;;21.16;96.32
46722;BME280;32455;43.430;23.136;2022-08-21T06:06:24;97476.28;;;21.22;96.58
46722;BME280;32455;43.430;23.136;2022-08-21T06:09:09;97463.00;;;21.30;95.73
46722;BME280;32455;43.430;23.136;2022-08-21T06:11:54;97459.84;;;21.36;96.27
46722;BME280;32455;43.430;23.136;2022-08-21T06:14:40;97454.22;;;21.55;95.82
46722;BME280;32455;43.430;23.136;2022-08-21T06:17:25;97453.09;;;21.56;95.85
46722;BME280;32455;43.430;23.136;2022-08-21T06:20:10;97458.50;;;21.47;95.96
46722;BME280;32455;43.430;23.136;2022-08-21T06:22:55;97453.34;;;21.46;96.44
46722;BME280;32455;43.430;23.136;2022-08-21T06:25:40;97473.84;;;21.57;96.98
46722;BME280;32455;43.430;23.136;2022-08-21T06:28:25;97467.63;;;21.65;97.61
46722;BME280;32455;43.430;23.136;2022-08-21T06:31:18;97470.22;;;21.70;95.83
46722;BME280;32455;43.430;23.136;2022-08-21T06:34:02;97478.25;;;21.67;95.92
46722;BME280;32455;43.430;23.136;2022-08-21T06:36:47;97479.31;;;21.57;96.34
46722;BME280;32455;43.430;23.136;2022-08-21T06:39:32;97481.53;;;21.78;94.94
46722;BME280;32455;43.430;23.136;2022-08-21T06:42:17;97460.50;;;21.87;94.76
46722;BME280;32455;43.430;23.136;2022-08-21T06:45:03;97478.47;;;22.02;93.35
46722;BME280;32455;43.430;23.136;2022-08-21T06:47:49;97475.34;;;22.17;91.25
46722;BME280;32455;43.430;23.136;2022-08-21T06:50:33;97482.66;;;22.39;90.24
46722;BME280;32455;43.430;23.136;2022-08-21T06:53:20;97476.28;;;22.52;92.17
46722;BME280;32455;43.430;23.136;2022-08-21T06:56:06;97478.44;;;22.72;88.60
46722;BME280;32455;43.430;23.136;2022-08-21T06:58:50;97477.97;;;22.79;90.15
46722;BME280;32455;43.430;23.136;2022-08-21T07:01:38;97481.69;;;22.83;90.41
46722;BME280;32455;43.430;23.136;2022-08-21T07:04:23;97482.03;;;22.90;91.88
46722;BME280;32455;43.430;23.136;2022-08-21T07:07:07;97488.31;;;22.91;93.59
46722;BME280;32455;43.430;23.136;2022-08-21T07:09:52;97484.28;;;22.88;91.19
46722;BME280;32455;43.430;23.136;2022-08-21T07:12:38;97488.94;;;22.88;90.83
46722;BME280;32455;43.430;23.136;2022-08-21T07:15:23;97491.69;;;22.88;91.83
46722;BME280;32455;43.430;23.136;2022-08-21T07:18:08;97492.22;;;22.98;93.05
46722;BME280;32455;43.430;23.136;2022-08-21T07:20:54;97493.34;;;23.06;93.42
46722;BME280;32455;43.430;23.136;2022-08-21T07:23:44;97498.69;;;23.11;91.96
46722;BME280;32455;43.430;23.136;2022-08-21T07:26:30;97499.19;;;23.13;91.02
46722;BME280;32455;43.430;23.136;2022-08-21T07:29:15;97501.41;;;23.20;89.42
46722;BME280;32455;43.430;23.136;2022-08-21T07:32:01;97490.16;;;23.13;89.68
46722;BME280;32455;43.430;23.136;2022-08-21T07:34:46;97488.38;;;23.17;89.04
46722;BME280;32455;43.430;23.136;2022-08-21T07:37:32;97471.44;;;23.23;88.10
46722;BME280;32455;43.430;23.136;2022-08-21T07:40:17;97497.59;;;23.73;89.51
46722;BME280;32455;43.430;23.136;2022-08-21T07:43:03;97492.88;;;23.82;88.73
46722;BME280;32455;43.430;23.136;2022-08-21T07:45:48;97492.56;;;23.84;88.37
46722;BME280;32455;43.430;23.136;2022-08-21T07:48:36;97487.56;;;23.86;89.11
46722;BME280;32455;43.430;23.136;2022-08-21T07:51:25;97498.34;;;23.91;87.99
46722;BME280;32455;43.430;23.136;2022-08-21T07:54:12;97490.78;;;23.79;89.59
46722;BME280;32455;43.430;23.136;2022-08-21T07:56:56;97494.13;;;23.93;88.20
46722;BME280;32455;43.430;23.136;2022-08-21T07:59:41;97492.81;;;24.08;84.43
46722;BME280;32455;43.430;23.136;2022-08-21T08:02:29;97493.03;;;23.94;84.13
46722;BME280;32455;43.430;23.136;2022-08-21T08:05:16;97494.97;;;23.94;87.10
46722;BME280;32455;43.430;23.136;2022-08-21T08:08:02;97487.38;;;23.99;87.72
46722;BME280;32455;43.430;23.136;2022-08-21T08:10:47;97493.81;;;24.04;86.54
46722;BME280;32455;43.430;23.136;2022-08-21T08:13:45;97481.22;;;24.03;86.70
46722;BME280;32455;43.430;23.136;2022-08-21T08:16:32;97478.69;;;24.27;84.21
46722;BME280;32455;43.430;23.136;2022-08-21T08:19:17;97483.03;;;24.45;85.64
46722;BME280;32455;43.430;23.136;2022-08-21T08:22:13;97483.81;;;24.55;84.57
46722;BME280;32455;43.430;23.136;2022-08-21T08:24:59;97491.94;;;24.72;85.61
46722;BME280;32455;43.430;23.136;2022-08-21T08:27:45;97482.63;;;24.64;84.46
46722;BME280;32455;43.430;23.136;2022-08-21T08:30:31;97476.47;;;24.67;83.39
46722;BME280;32455;43.430;23.136;2022-08-21T08:33:18;97491.91;;;24.81;82.97
46722;BME280;32455;43.430;23.136;2022-08-21T08:36:08;97497.31;;;24.68;84.42
46722;BME280;32455;43.430;23.136;2022-08-21T08:38:57;97470.06;;;24.55;86.06
46722;BME280;32455;43.430;23.136;2022-08-21T08:41:44;97481.16;;;24.67;84.43
46722;BME280;32455;43.430;23.136;2022-08-21T08:44:33;97477.16;;;24.56;85.59
46722;BME280;32455;43.430;23.136;2022-08-21T08:47:19;97483.00;;;24.54;81.81
46722;BME280;32455;43.430;23.136;2022-08-21T08:50:09;97483.00;;;24.54;81.97
46722;BME280;32455;43.430;23.136;2022-08-21T08:53:06;97470.16;;;24.37;83.20
46722;BME280;32455;43.430;23.136;2022-08-21T08:55:52;97476.34;;;24.17;84.28
46722;BME280;32455;43.430;23.136;2022-08-21T08:58:41;97467.75;;;24.18;85.53
46722;BME280;32455;43.430;23.136;2022-08-21T09:01:28;97472.75;;;24.25;84.39
46722;BME280;32455;43.430;23.136;2022-08-21T09:04:19;97463.97;;;24.32;83.77
46722;BME280;32455;43.430;23.136;2022-08-21T09:23:27;97458.50;;;24.32;81.65
46722;BME280;32455;43.430;23.136;2022-08-21T09:26:24;97451.53;;;24.34;81.46
46722;BME280;32455;43.430;23.136;2022-08-21T09:29:12;97456.38;;;24.46;81.49
46722;BME280;32455;43.430;23.136;2022-08-21T09:31:57;97445.38;;;24.76;80.45
46722;BME280;32455;43.430;23.136;2022-08-21T09:35:06;97440.44;;;24.90;76.49
46722;BME280;32455;43.430;23.136;2022-08-21T09:38:00;97439.56;;;24.77;78.33
46722;BME280;32455;43.430;23.136;2022-08-21T09:40:57;97444.75;;;24.70;78.08
46722;BME280;32455;43.430;23.136;2022-08-21T09:43:53;97442.69;;;24.67;78.11
46722;BME280;32455;43.430;23.136;2022-08-21T09:46:50;97444.00;;;24.61;79.90
46722;BME280;32455;43.430;23.136;2022-08-21T09:49:39;97445.88;;;24.98;81.27
46722;BME280;32455;43.430;23.136;2022-08-21T09:52:25;97433.09;;;25.23;80.63
46722;BME280;32455;43.430;23.136;2022-08-21T09:55:33;97447.09;;;25.31;81.12
46722;BME280;32455;43.430;23.136;2022-08-21T09:58:55;97419.34;;;25.23;80.85
46722;BME280;32455;43.430;23.136;2022-08-21T10:01:48;97436.28;;;25.46;78.85
46722;BME280;32455;43.430;23.136;2022-08-21T10:04:35;97425.88;;;25.52;76.67
46722;BME280;32455;43.430;23.136;2022-08-21T10:07:23;97425.41;;;25.50;78.01
46722;BME280;32455;43.430;23.136;2022-08-21T10:10:21;97431.50;;;25.89;76.79
46722;BME280;32455;43.430;23.136;2022-08-21T10:16:15;97428.56;;;26.06;71.31
46722;BME280;32455;43.430;23.136;2022-08-21T10:22:32;97426.97;;;26.17;71.63
46722;BME280;32455;43.430;23.136;2022-08-21T10:25:27;97411.59;;;26.29;73.20
46722;BME280;32455;43.430;23.136;2022-08-21T10:28:25;97405.63;;;26.39;72.93
46722;BME280;32455;43.430;23.136;2022-08-21T10:31:25;97402.56;;;26.53;71.24
46722;BME280;32455;43.430;23.136;2022-08-21T10:40:38;97399.63;;;26.98;69.73
46722;BME280;32455;43.430;23.136;2022-08-21T10:49:58;97383.31;;;26.81;71.55
46722;BME280;32455;43.430;23.136;2022-08-21T10:53:19;97390.72;;;27.05;72.64
46722;BME280;32455;43.430;23.136;2022-08-21T10:56:19;97395.56;;;27.20;69.45
46722;BME280;32455;43.430;23.136;2022-08-21T10:59:29;97385.91;;;27.14;69.19
46722;BME280;32455;43.430;23.136;2022-08-21T11:02:26;97389.66;;;26.81;68.58
46722;BME280;32455;43.430;23.136;2022-08-21T11:05:48;97386.69;;;26.62;71.11
46722;BME280;32455;43.430;23.136;2022-08-21T11:08:42;97378.91;;;26.52;70.37
46722;BME280;32455;43.430;23.136;2022-08-21T11:11:41;97377.28;;;26.51;69.01
46722;BME280;32455;43.430;23.136;2022-08-21T11:17:43;97354.91;;;26.40;69.29
46722;BME280;32455;43.430;23.136;2022-08-21T11:21:38;97360.28;;;26.73;68.89
46722;BME280;32455;43.430;23.136;2022-08-21T11:23:59;97350.50;;;26.63;69.36
46722;BME280;32455;43.430;23.136;2022-08-21T11:26:57;97346.66;;;26.92;66.98
46722;BME280;32455;43.430;23.136;2022-08-21T11:29:52;97333.41;;;26.70;67.58
46722;BME280;32455;43.430;23.136;2022-08-21T11:35:47;97332.63;;;26.57;67.40
46722;BME280;32455;43.430;23.136;2022-08-21T11:38:40;97317.38;;;26.35;67.74
46722;BME280;32455;43.430;23.136;2022-08-21T11:41:42;97329.31;;;26.39;68.87
46722;BME280;32455;43.430;23.136;2022-08-21T11:44:33;97324.03;;;26.34;69.62
46722;BME280;32455;43.430;23.136;2022-08-21T11:50:42;97318.31;;;26.52;68.46
46722;BME280;32455;43.430;23.136;2022-08-21T11:53:31;97318.31;;;26.52;68.96
46722;BME280;32455;43.430;23.136;2022-08-21T11:56:23;97311.09;;;26.47;68.17
46722;BME280;32455;43.430;23.136;2022-08-21T11:59:20;97312.91;;;26.43;67.08
46722;BME280;32455;43.430;23.136;2022-08-21T12:02:14;97313.94;;;26.38;67.45
46722;BME280;32455;43.430;23.136;2022-08-21T12:05:20;97318.50;;;26.46;68.64
46722;BME280;32455;43.430;23.136;2022-08-21T12:08:15;97313.78;;;26.59;67.94
46722;BME280;32455;43.430;23.136;2022-08-21T12:16:51;97307.59;;;26.38;68.26
46722;BME280;32455;43.430;23.136;2022-08-21T12:19:37;97306.94;;;26.16;69.27
46722;BME280;32455;43.430;23.136;2022-08-21T12:22:23;97287.09;;;26.11;68.12
46722;BME280;32455;43.430;23.136;2022-08-21T12:25:22;97300.38;;;26.33;68.82
46722;BME280;32455;43.430;23.136;2022-08-21T12:28:10;97300.34;;;26.70;68.07
46722;BME280;32455;43.430;23.136;2022-08-21T12:30:56;97315.59;;;27.08;66.58
46722;BME280;32455;43.430;23.136;2022-08-21T12:33:42;97313.06;;;27.31;66.52
46722;BME280;32455;43.430;23.136;2022-08-21T12:36:59;97308.09;;;27.36;65.69
46722;BME280;32455;43.430;23.136;2022-08-21T12:39:49;97307.78;;;27.54;66.25
46722;BME280;32455;43.430;23.136;2022-08-21T12:42:48;97296.25;;;27.36;65.38
46722;BME280;32455;43.430;23.136;2022-08-21T12:45:42;97300.03;;;27.59;65.52
46722;BME280;32455;43.430;23.136;2022-08-21T12:48:35;97298.00;;;27.88;64.64
46722;BME280;32455;43.430;23.136;2022-08-21T12:54:51;97300.31;;;28.02;63.23
46722;BME280;32455;43.430;23.136;2022-08-21T12:57:39;97294.56;;;27.75;62.03
46722;BME280;32455;43.430;23.136;2022-08-21T13:00:28;97300.38;;;27.42;63.10
46722;BME280;32455;43.430;23.136;2022-08-21T13:03:15;97280.94;;;27.23;63.63
46722;BME280;32455;43.430;23.136;2022-08-21T13:06:03;97284.84;;;27.21;63.13
46722;BME280;32455;43.430;23.136;2022-08-21T13:08:55;97288.56;;;27.13;64.30
46722;BME280;32455;43.430;23.136;2022-08-21T13:11:44;97284.94;;;26.97;64.49
46722;BME280;32455;43.430;23.136;2022-08-21T13:14:40;97285.59;;;27.06;64.68
46722;BME280;32455;43.430;23.136;2022-08-21T13:17:31;97291.81;;;27.15;62.89
46722;BME280;32455;43.430;23.136;2022-08-21T13:20:26;97275.59;;;27.14;64.60
46722;BME280;32455;43.430;23.136;2022-08-21T13:23:29;97266.97;;;27.15;64.18
46722;BME280;32455;43.430;23.136;2022-08-21T13:26:19;97269.88;;;27.07;64.30
46722;BME280;32455;43.430;23.136;2022-08-21T13:29:09;97273.75;;;27.06;64.11
46722;BME280;32455;43.430;23.136;2022-08-21T13:32:05;97269.56;;;26.96;65.03
46722;BME280;32455;43.430;23.136;2022-08-21T13:34:54;97263.00;;;27.01;64.91
46722;BME280;32455;43.430;23.136;2022-08-21T13:37:41;97271.47;;;27.08;65.65
46722;BME280;32455;43.430;23.136;2022-08-21T13:40:30;97275.63;;;27.30;65.23
46722;BME280;32455;43.430;23.136;2022-08-21T13:43:19;97276.44;;;27.46;65.73
46722;BME280;32455;43.430;23.136;2022-08-21T13:46:12;97278.66;;;27.56;65.26
46722;BME280;32455;43.430;23.136;2022-08-21T13:49:02;97277.66;;;27.49;64.91
46722;BME280;32455;43.430;23.136;2022-08-21T13:51:49;97291.00;;;27.31;64.58
46722;BME280;32455;43.430;23.136;2022-08-21T13:54:39;97283.28;;;27.08;64.73
46722;BME280;32455;43.430;23.136;2022-08-21T13:57:31;97285.19;;;26.92;65.87
46722;BME280;32455;43.430;23.136;2022-08-21T14:00:26;97308.66;;;26.45;65.26
46722;BME280;32455;43.430;23.136;2022-08-21T14:03:15;97317.63;;;24.82;67.36
46722;BME280;32455;43.430;23.136;2022-08-21T14:06:18;97319.88;;;24.67;69.08
46722;BME280;32455;43.430;23.136;2022-08-21T14:09:22;97316.50;;;24.32;69.99
46722;BME280;32455;43.430;23.136;2022-08-21T14:12:30;97314.63;;;23.65;70.61
46722;BME280;32455;43.430;23.136;2022-08-21T14:15:19;97324.34;;;23.92;68.61
46722;BME280;32455;43.430;23.136;2022-08-21T14:18:16;97329.03;;;23.44;68.75
46722;BME280;32455;43.430;23.136;2022-08-21T14:21:08;97319.03;;;23.40;68.68
46722;BME280;32455;43.430;23.136;2022-08-21T14:24:13;97319.22;;;23.35;69.22
46722;BME280;32455;43.430;23.136;2022-08-21T14:27:05;97305.88;;;23.07;72.08
46722;BME280;32455;43.430;23.136;2022-08-21T14:29:50;97316.84;;;22.46;74.23
46722;BME280;32455;43.430;23.136;2022-08-21T14:32:42;97320.88;;;22.66;73.62
46722;BME280;32455;43.430;23.136;2022-08-21T14:35:28;97321.56;;;22.06;74.57
46722;BME280;32455;43.430;23.136;2022-08-21T14:38:18;97335.16;;;22.29;75.65
46722;BME280;32455;43.430;23.136;2022-08-21T14:41:17;97341.59;;;22.24;78.43
46722;BME280;32455;43.430;23.136;2022-08-21T14:44:05;97336.34;;;21.96;85.45
46722;BME280;32455;43.430;23.136;2022-08-21T14:46:51;97330.47;;;21.72;91.80
46722;BME280;32455;43.430;23.136;2022-08-21T14:49:41;97330.84;;;21.48;96.96
46722;BME280;32455;43.430;23.136;2022-08-21T14:52:33;97339.25;;;21.60;98.79
46722;BME280;32455;43.430;23.136;2022-08-21T14:55:20;97331.41;;;21.36;98.70
46722;BME280;32455;43.430;23.136;2022-08-21T14:58:06;97347.31;;;21.12;100.00
46722;BME280;32455;43.430;23.136;2022-08-21T15:00:52;97354.53;;;21.08;100.00
46722;BME280;32455;43.430;23.136;2022-08-21T15:03:41;97362.97;;;21.20;100.00
46722;BME280;32455;43.430;23.136;2022-08-21T15:06:27;97383.91;;;20.88;100.00
46722;BME280;32455;43.430;23.136;2022-08-21T15:09:13;97393.09;;;20.70;100.00
46722;BME280;32455;43.430;23.136;2022-08-21T15:12:00;97390.00;;;20.49;100.00
46722;BME280;32455;43.430;23.136;2022-08-21T15:14:46;97372.00;;;20.34;100.00
46722;BME280;32455;43.430;23.136;2022-08-21T15:17:32;97355.50;;;20.89;100.00
46722;BME280;32455;43.430;23.136;2022-08-21T15:20:18;97382.88;;;20.98;100.00
46722;BME280;32455;43.430;23.136;2022-08-21T15:23:04;97393.41;;;20.41;100.00
46722;BME280;32455;43.430;23.136;2022-08-21T15:25:52;97400.59;;;20.37;100.00
46722;BME280;32455;43.430;23.136;2022-08-21T15:28:38;97408.69;;;20.28;100.00
46722;BME280;32455;43.430;23.136;2022-08-21T15:31:23;97393.72;;;20.12;100.00
46722;BME280;32455;43.430;23.136;2022-08-21T15:34:08;97377.47;;;20.20;100.00